KSTL/STL METAR and TAF weather

Enter ICAO airport designator
Station Type Date Time Source
KSTL METAR 2022/01/29 01:51 UTC NOAA

KSTL 290151Z 32006KT 10SM CLR M07/M13 A3042 RMK AO2 SLP314 T10721133


Station Type Date Time Source
KSTL Decoded METAR 2022/01/29 01:51 UTC NOAA

LAMBERT-ST LOUIS INTERNATIONAL AIRPORT , MO, United States (KSTL) 38-45N 90-22W 171M
Jan 28, 2022 - 08:51 PM EST / 2022.01.29 0151 UTC
Wind: from the NW (320 degrees) at 7 MPH (6 KT):0
Visibility: 10 mile(s):0
Sky conditions: clear
Temperature: 19.0 F (-7.2 C)
Windchill: 10 F (-12 C):1
Dew Point: 8.1 F (-13.3 C)
Relative Humidity: 61%
Pressure (altimeter): 30.42 in. Hg (1030 hPa)
ob: KSTL 290151Z 32006KT 10SM CLR M07/M13 A3042 RMK AO2 SLP314 T10721133
cycle: 2

Station Type Date Time Source
KSTL TAF 2022/01/28 21:03 UTC NOAA

TAF
AMD KSTL 282100Z 2821/2924 33015G25KT P6SM SKC
FM290000 33005KT P6SM SKC

Example: see airport list